createdAt,value
2023-01-05T00:05:03.612Z,99381.19
2023-01-05T00:10:25.457Z,99366.38
2023-01-05T00:15:47.354Z,99386.25
2023-01-05T00:21:14.338Z,99372.63
2023-01-05T00:26:36.237Z,99337.47
2023-01-05T00:31:58.139Z,99339.97
2023-01-05T00:37:20.364Z,99348.81
2023-01-05T00:42:42.548Z,99330.88
2023-01-05T00:48:04.723Z,99326.03
2023-01-05T00:53:26.594Z,99307.25
2023-01-05T00:58:48.435Z,99308.16
2023-01-05T01:04:10.319Z,99301.22
2023-01-05T01:09:33.029Z,99308.44
2023-01-05T01:14:54.848Z,99295.56
2023-01-05T01:20:17.531Z,99308.25
2023-01-05T01:25:39.383Z,99276.72
2023-01-05T01:31:01.814Z,99280.84
2023-01-05T01:36:23.639Z,99287.09
2023-01-05T01:41:45.639Z,99278.72
2023-01-05T01:47:11.870Z,99280.03
2023-01-05T01:52:34.870Z,99239.72
2023-01-05T01:57:57.956Z,99237.38
2023-01-05T02:03:19.845Z,99237.69
2023-01-05T02:08:42.503Z,99231.00
2023-01-05T02:14:37.960Z,99224.94
2023-01-05T02:20:18.020Z,99220.13
2023-01-05T02:25:42.591Z,99210.03
2023-01-05T02:31:23.561Z,99179.75
2023-01-05T02:36:51.558Z,99193.16
2023-01-05T02:42:20.549Z,99180.09
2023-01-05T02:47:45.291Z,99193.16
2023-01-05T02:53:18.811Z,99170.75
2023-01-05T02:58:48.667Z,99182.19
2023-01-05T03:04:17.965Z,99164.97
2023-01-05T03:09:42.277Z,99165.75
2023-01-05T03:15:31.451Z,99147.13
2023-01-05T03:20:55.164Z,99154.28
2023-01-05T03:26:17.134Z,99159.72
2023-01-05T03:31:38.923Z,99151.22
2023-01-05T03:37:15.199Z,99135.16
2023-01-05T03:42:38.175Z,99137.94
2023-01-05T03:48:00.040Z,99121.00
2023-01-05T03:53:21.925Z,99110.59
2023-01-05T03:58:43.772Z,99117.41
2023-01-05T04:04:05.687Z,99117.34
2023-01-05T04:09:27.565Z,99106.66
2023-01-05T04:14:49.387Z,99110.41
2023-01-05T04:20:11.623Z,99102.19
2023-01-05T04:25:33.472Z,99105.09
2023-01-05T04:30:56.560Z,99105.09
2023-01-05T04:36:18.405Z,99129.16
2023-01-05T04:41:40.241Z,99115.78
2023-01-05T04:47:02.063Z,99112.03
2023-01-05T04:52:23.892Z,99102.50
2023-01-05T04:57:45.727Z,99108.00
2023-01-05T05:03:07.759Z,99106.06
2023-01-05T05:08:29.778Z,99106.19
2023-01-05T05:13:51.735Z,99105.34
2023-01-05T05:19:13.691Z,99119.81
2023-01-05T05:24:35.574Z,99116.16
2023-01-05T05:29:57.388Z,99111.84
2023-01-05T05:35:19.282Z,99119.47
2023-01-05T05:40:41.165Z,99118.41
2023-01-05T05:46:03.295Z,99105.47
2023-01-05T05:51:26.001Z,99118.97
2023-01-05T05:56:47.851Z,99125.09
2023-01-05T06:02:09.792Z,99122.13
2023-01-05T06:07:31.700Z,99129.53
2023-01-05T06:12:54.702Z,99136.69
2023-01-05T06:18:17.345Z,99121.34
2023-01-05T06:23:39.160Z,99125.16
2023-01-05T06:29:01.021Z,99132.38
2023-01-05T06:34:22.847Z,99134.63
2023-01-05T06:39:44.826Z,99144.72
2023-01-05T06:45:08.417Z,99144.78
2023-01-05T06:50:30.452Z,99137.88
2023-01-05T06:55:52.272Z,99155.69
2023-01-05T07:01:14.164Z,99165.88
2023-01-05T07:06:36.375Z,99155.06
2023-01-05T07:11:58.181Z,99173.72
2023-01-05T07:17:20.209Z,99180.00
2023-01-05T07:22:42.117Z,99169.25
2023-01-05T07:28:04.103Z,99172.81
2023-01-05T07:33:25.944Z,99164.72
2023-01-05T07:38:47.773Z,99168.00
2023-01-05T07:44:09.782Z,99166.19
2023-01-05T07:49:31.613Z,99165.03
2023-01-05T07:54:53.445Z,99166.84
2023-01-05T08:00:15.634Z,99165.63
2023-01-05T08:05:37.477Z,99168.75
2023-01-05T08:10:59.428Z,99162.50
2023-01-05T08:16:21.761Z,99178.41
2023-01-05T08:21:43.693Z,99177.88
2023-01-05T08:27:05.685Z,99165.84
2023-01-05T08:32:27.649Z,99167.56
2023-01-05T08:37:49.551Z,99178.22
2023-01-05T08:43:11.386Z,99190.75
2023-01-05T08:48:33.231Z,99196.94
2023-01-05T08:53:55.936Z,99201.19
2023-01-05T08:59:17.863Z,99207.31
2023-01-05T09:04:39.799Z,99219.84
2023-01-05T09:10:01.698Z,99230.53
2023-01-05T09:15:23.579Z,99219.31
2023-01-05T09:20:45.424Z,99230.44
2023-01-05T09:26:08.999Z,99227.16
2023-01-05T09:31:30.890Z,99229.94
2023-01-05T09:36:52.737Z,99258.28
2023-01-05T09:42:19.298Z,99257.25
2023-01-05T09:47:45.918Z,99267.97
2023-01-05T09:53:07.865Z,99248.66
2023-01-05T09:58:37.179Z,99247.84
2023-01-05T10:04:04.603Z,99243.50
2023-01-05T10:09:35.055Z,99248.00
2023-01-05T10:15:13.739Z,99258.09
2023-01-05T10:20:46.061Z,99245.63
2023-01-05T10:26:20.969Z,99269.31
2023-01-05T10:31:55.061Z,99258.09
2023-01-05T10:37:16.839Z,99263.25
2023-01-05T10:42:58.374Z,99247.13
2023-01-05T10:48:28.807Z,99272.72
2023-01-05T10:53:50.735Z,99256.19
2023-01-05T10:59:13.460Z,99265.44
2023-01-05T11:04:36.060Z,99261.44
2023-01-05T11:09:58.163Z,99259.56
2023-01-05T11:15:20.976Z,99259.75
2023-01-05T11:21:14.500Z,99260.09
2023-01-05T11:26:49.182Z,99267.34
2023-01-05T11:32:13.396Z,99257.13
2023-01-05T11:37:35.291Z,99258.69
2023-01-05T11:42:59.317Z,99258.28
2023-01-05T11:48:26.597Z,99265.56
2023-01-05T11:53:48.467Z,99254.06
2023-01-05T11:59:28.997Z,99264.06
2023-01-05T12:05:37.156Z,99275.16
2023-01-05T12:11:18.336Z,99277.72
2023-01-05T12:16:47.573Z,99283.44
2023-01-05T12:22:24.780Z,99274.09
2023-01-05T12:27:49.259Z,99281.47
2023-01-05T12:39:13.314Z,99269.88
2023-01-05T12:45:19.686Z,99274.16
2023-01-05T12:50:47.600Z,99270.06
2023-01-05T12:56:18.903Z,99260.94
2023-01-05T13:02:07.348Z,99271.88
2023-01-05T13:07:52.583Z,99278.22
2023-01-05T13:13:19.636Z,99282.66
2023-01-05T13:19:02.213Z,99288.13
2023-01-05T13:24:31.105Z,99280.09
2023-01-05T13:29:54.791Z,99290.19
2023-01-05T13:35:30.104Z,99291.63
2023-01-05T13:41:04.094Z,99302.41
2023-01-05T13:46:40.887Z,99313.03
2023-01-05T13:52:21.929Z,99315.81
2023-01-05T13:57:45.207Z,99318.69
2023-01-05T14:03:09.928Z,99324.84
2023-01-05T14:08:36.179Z,99315.44
2023-01-05T14:14:00.852Z,99317.50
2023-01-05T14:19:32.884Z,99334.69
2023-01-05T14:24:55.986Z,99329.09
2023-01-05T14:30:21.971Z,99329.19
2023-01-05T14:35:44.729Z,99330.53
2023-01-05T14:47:36.872Z,99348.00
2023-01-05T14:53:00.096Z,99351.47
2023-01-05T14:58:36.928Z,99350.81
2023-01-05T15:04:14.806Z,99340.59
2023-01-05T15:10:11.873Z,99347.56
2023-01-05T15:21:56.068Z,99348.41
2023-01-05T15:27:51.997Z,99328.19
2023-01-05T15:33:39.880Z,99339.13
2023-01-05T15:39:01.723Z,99325.66
2023-01-05T15:44:26.112Z,99340.28
2023-01-05T15:49:49.830Z,99331.41
2023-01-05T15:55:17.390Z,99343.47
2023-01-05T16:00:39.463Z,99365.66
2023-01-05T16:06:08.865Z,99365.91
2023-01-05T16:11:36.629Z,99374.66
2023-01-05T16:17:05.370Z,99362.56
2023-01-05T16:22:30.256Z,99372.75
2023-01-05T16:27:55.909Z,99387.91
2023-01-05T16:33:36.387Z,99398.63
2023-01-05T16:39:22.503Z,99408.69
2023-01-05T16:44:52.532Z,99416.25
2023-01-05T16:50:17.365Z,99444.41
2023-01-05T16:55:39.951Z,99465.97
2023-01-05T17:01:13.952Z,99465.84
2023-01-05T17:06:35.875Z,99474.69
2023-01-05T17:11:58.257Z,99474.09
2023-01-05T17:17:20.163Z,99515.97
2023-01-05T17:22:42.227Z,99516.88
2023-01-05T17:28:04.271Z,99530.41
2023-01-05T17:33:26.260Z,99534.75
2023-01-05T17:38:48.410Z,99555.84
2023-01-05T17:44:10.797Z,99571.88
2023-01-05T17:49:32.656Z,99573.50
2023-01-05T17:54:54.520Z,99585.75
2023-01-05T18:00:20.826Z,99592.66
2023-01-05T18:05:44.565Z,99620.09
2023-01-05T18:11:08.014Z,99609.84
2023-01-05T18:21:52.653Z,99653.22
2023-01-05T18:27:14.647Z,99651.50
2023-01-05T18:32:37.056Z,99669.41
2023-01-05T18:37:58.998Z,99681.34
2023-01-05T18:43:20.805Z,99698.41
2023-01-05T18:48:42.685Z,99707.78
2023-01-05T18:54:05.320Z,99730.88
2023-01-05T18:59:27.159Z,99738.16
2023-01-05T19:04:49.272Z,99754.25
2023-01-05T19:10:11.156Z,99769.59
2023-01-05T19:15:34.952Z,99776.72
2023-01-05T19:21:00.202Z,99778.31
2023-01-05T19:26:23.374Z,99794.63
2023-01-05T19:31:46.114Z,99804.16
2023-01-05T19:37:08.047Z,99812.09
2023-01-05T19:42:31.534Z,99823.31
2023-01-05T19:47:53.399Z,99846.53
2023-01-05T19:53:15.384Z,99857.97
2023-01-05T19:58:38.560Z,99872.44
2023-01-05T20:04:01.240Z,99889.81
2023-01-05T20:09:23.250Z,99896.53
2023-01-05T20:14:45.232Z,99916.38
2023-01-05T20:20:07.648Z,99937.59
2023-01-05T20:25:29.576Z,99958.28
2023-01-05T20:30:51.454Z,99969.38
2023-01-05T20:36:13.621Z,99984.81
2023-01-05T20:41:38.979Z,99991.09
2023-01-05T20:47:01.012Z,100012.56
2023-01-05T20:52:22.970Z,100031.63
2023-01-05T20:57:44.853Z,100044.31
2023-01-05T21:03:06.831Z,100069.16
2023-01-05T21:08:28.809Z,100093.00
2023-01-05T21:13:50.679Z,100120.25
2023-01-05T21:19:14.500Z,100119.50
2023-01-05T21:24:36.741Z,100116.19
2023-01-05T21:29:58.686Z,100152.03
2023-01-05T21:35:20.660Z,100153.72
2023-01-05T21:40:42.541Z,100185.31
2023-01-05T21:46:09.843Z,100207.53
2023-01-05T21:51:31.899Z,100203.28
2023-01-05T21:56:54.329Z,100232.19
2023-01-05T22:02:16.686Z,100255.19
2023-01-05T22:07:38.587Z,100273.09
2023-01-05T22:13:00.461Z,100300.31
2023-01-05T22:18:24.348Z,100324.94
2023-01-05T22:23:46.335Z,100338.50
2023-01-05T22:29:08.552Z,100354.63
2023-01-05T22:34:31.046Z,100342.72
2023-01-05T22:39:52.981Z,100358.84
2023-01-05T22:45:14.919Z,100377.53
2023-01-05T22:50:36.776Z,100380.94
2023-01-05T22:55:58.958Z,100397.09
2023-01-05T23:01:33.078Z,100419.16
2023-01-05T23:06:54.958Z,100405.53
2023-01-05T23:12:16.887Z,100421.66
2023-01-05T23:17:39.002Z,100448.75
2023-01-05T23:23:00.893Z,100481.03
2023-01-05T23:28:25.090Z,100497.22
2023-01-05T23:33:48.249Z,100499.78
2023-01-05T23:39:10.199Z,100501.50
2023-01-05T23:44:32.055Z,100521.06
2023-01-05T23:49:53.901Z,100527.81
2023-01-05T23:55:15.813Z,100533.75
